Time;durP1;ratioP1;P1;durP2;ratioP2;P2;SDS_P1;SDS_P2;PMS_P1;PMS_P2;Temp;Humidity;BMP_temperature;BMP_pressure;BME280_temperature;BME280_humidity;BME280_pressure;Samples;Min_cycle;Max_cycle;Signal;HPM_P1;HPM_P2
2020/12/26 14:29:58;;;;;;;27.45;15.00;;;0.90;93.70;;;;;;5118039;27;20785;-95
2020/12/26 14:32:24;;;;;;;30.50;17.15;;;0.80;94.20;;;;;;5091652;28;20028;-96
2020/12/26 14:34:50;;;;;;;26.17;16.70;;;0.80;94.60;;;;;;5073139;28;20032;-95
2020/12/26 14:37:15;;;;;;;29.75;15.90;;;0.80;94.90;;;;;;5077655;28;20033;-95
2020/12/26 14:39:41;;;;;;;29.45;15.10;;;0.90;95.20;;;;;;5076426;28;20074;-95
2020/12/26 14:42:07;;;;;;;47.22;22.02;;;1.00;95.40;;;;;;5071430;28;20024;-96
2020/12/26 14:44:36;;;;;;;47.60;22.92;;;1.00;95.50;;;;;;5070780;28;20042;-95
2020/12/26 14:47:03;;;;;;;48.97;23.05;;;1.10;95.60;;;;;;5079181;28;20024;-94
2020/12/26 14:49:28;;;;;;;57.13;28.65;;;1.10;95.80;;;;;;5070063;28;20040;-93
2020/12/26 14:51:55;;;;;;;60.10;31.05;;;1.20;95.90;;;;;;5070650;28;20029;-95
2020/12/26 14:54:21;;;;;;;76.38;39.70;;;1.30;96.00;;;;;;5069506;28;20025;-94
2020/12/26 14:56:48;;;;;;;88.45;39.28;;;1.40;96.00;;;;;;5071080;28;20036;-95
2020/12/26 14:59:15;;;;;;;77.45;36.92;;;1.40;96.10;;;;;;5075808;28;20380;-94
2020/12/26 15:01:41;;;;;;;58.90;27.20;;;1.50;96.10;;;;;;5069457;28;20034;-95
2020/12/26 15:04:10;;;;;;;53.13;25.85;;;1.60;96.10;;;;;;5069712;28;20075;-95
2020/12/26 15:06:37;;;;;;;74.05;30.35;;;1.60;96.10;;;;;;5069463;28;20025;-95
2020/12/26 15:09:04;;;;;;;68.60;35.05;;;1.70;96.10;;;;;;5065926;28;20116;-95
2020/12/26 15:11:30;;;;;;;56.90;28.48;;;1.70;96.00;;;;;;5060481;28;20040;-94
2020/12/26 15:13:55;;;;;;;56.92;31.85;;;1.80;96.00;;;;;;5049388;28;20029;-94
2020/12/26 15:16:22;;;;;;;47.60;27.35;;;1.80;95.90;;;;;;5063625;28;20031;-96
2020/12/26 15:18:49;;;;;;;45.47;26.92;;;1.80;95.80;;;;;;5069777;28;20032;-95
2020/12/26 15:21:15;;;;;;;39.85;25.10;;;1.80;95.70;;;;;;5057493;28;20034;-96
2020/12/26 15:23:41;;;;;;;47.75;26.52;;;1.80;95.60;;;;;;5049737;28;20033;-96
2020/12/26 15:26:07;;;;;;;51.35;29.42;;;1.80;95.50;;;;;;5049413;28;20572;-94
2020/12/26 15:28:32;;;;;;;64.20;35.05;;;1.80;95.60;;;;;;5065360;28;20053;-95
2020/12/26 15:30:58;;;;;;;63.35;34.88;;;1.70;95.50;;;;;;5068942;28;20052;-95
2020/12/26 15:33:24;;;;;;;79.60;41.53;;;1.70;95.60;;;;;;5068746;28;20029;-95
2020/12/26 15:35:56;;;;;;;90.60;45.78;;;1.70;95.60;;;;;;5068725;28;20033;-96
2020/12/26 15:38:22;;;;;;;78.60;41.38;;;1.70;95.50;;;;;;5069227;28;20393;-95
2020/12/26 15:40:47;;;;;;;73.93;39.92;;;1.70;95.40;;;;;;5058486;28;20123;-93
2020/12/26 15:43:13;;;;;;;75.35;41.83;;;1.70;95.60;;;;;;5055599;28;20064;-94
2020/12/26 15:45:40;;;;;;;71.38;38.60;;;1.70;95.60;;;;;;5055542;28;20078;-95
2020/12/26 15:48:07;;;;;;;66.60;37.58;;;1.70;95.60;;;;;;5056154;28;20025;-95
2020/12/26 15:50:33;;;;;;;63.33;34.85;;;1.70;95.70;;;;;;5056282;28;20029;-96
2020/12/26 15:52:59;;;;;;;67.22;37.92;;;1.70;95.70;;;;;;5055695;28;20021;-95
2020/12/26 15:55:25;;;;;;;64.50;36.45;;;1.70;95.70;;;;;;5056004;28;20090;-94
2020/12/26 15:57:51;;;;;;;70.40;38.83;;;1.80;95.70;;;;;;5055302;28;20032;-94
2020/12/26 16:00:16;;;;;;;61.97;36.63;;;1.80;95.70;;;;;;5053903;28;20055;-94
2020/12/26 16:02:43;;;;;;;70.88;40.90;;;1.70;95.60;;;;;;5053592;28;20053;-94
2020/12/26 16:05:08;;;;;;;79.55;42.97;;;1.70;95.50;;;;;;5055077;28;20025;-95
2020/12/26 16:07:34;;;;;;;67.70;39.45;;;1.70;95.50;;;;;;5056146;28;20102;-95
2020/12/26 16:10:00;;;;;;;68.82;39.38;;;1.70;95.50;;;;;;5055246;28;20099;-96
2020/12/26 16:12:26;;;;;;;73.30;43.58;;;1.70;95.50;;;;;;5055120;28;20029;-95
2020/12/26 16:14:51;;;;;;;74.22;45.88;;;1.70;95.50;;;;;;5054716;28;20029;-92
2020/12/26 16:17:17;;;;;;;68.90;39.90;;;1.70;95.60;;;;;;5055020;28;20063;-95
2020/12/26 16:19:43;;;;;;;85.32;47.83;;;1.70;95.60;;;;;;5055124;28;20385;-95
2020/12/26 16:22:09;;;;;;;80.68;46.38;;;1.70;95.60;;;;;;5054914;28;20060;-96
2020/12/26 16:24:34;;;;;;;67.85;40.38;;;1.70;95.40;;;;;;5054805;28;20465;-95
2020/12/26 16:27:00;;;;;;;61.25;36.42;;;1.70;95.40;;;;;;5054656;28;20039;-96
2020/12/26 16:29:26;;;;;;;54.78;30.83;;;1.70;95.40;;;;;;5054765;28;20057;-94
2020/12/26 16:31:52;;;;;;;53.47;33.33;;;1.60;95.40;;;;;;5054579;28;20155;-96
2020/12/26 16:34:18;;;;;;;54.38;31.52;;;1.60;95.70;;;;;;5054972;28;20139;-95
2020/12/26 16:36:44;;;;;;;52.17;30.45;;;1.60;95.50;;;;;;5038135;28;20033;-95
2020/12/26 16:39:10;;;;;;;45.85;28.65;;;1.70;95.60;;;;;;5040208;28;20037;-95
2020/12/26 16:41:39;;;;;;;46.58;28.88;;;1.70;95.60;;;;;;5042303;28;20082;-95
2020/12/26 16:44:05;;;;;;;42.83;24.88;;;1.70;95.50;;;;;;5056348;28;20476;-96
2020/12/26 16:46:31;;;;;;;39.72;23.35;;;1.70;95.50;;;;;;5054255;28;20033;-94
2020/12/26 16:48:58;;;;;;;33.95;20.13;;;1.70;95.50;;;;;;5055398;28;20118;-94
2020/12/26 16:51:25;;;;;;;36.35;22.30;;;1.70;95.40;;;;;;5052382;28;20021;-95
2020/12/26 16:53:51;;;;;;;33.75;19.95;;;1.70;95.40;;;;;;5053649;28;20397;-96
2020/12/26 16:56:18;;;;;;;37.40;21.52;;;1.70;95.50;;;;;;5053495;28;20025;-95
2020/12/26 16:58:44;;;;;;;39.78;22.50;;;1.70;95.50;;;;;;5053707;28;20029;-94
2020/12/26 17:01:18;;;;;;;37.45;22.52;;;1.70;95.50;;;;;;5053950;28;20418;-94
2020/12/26 18:01:39;;;;;;;46.75;26.20;;;0.40;94.70;;;;;;5113896;27;20446;-94
2020/12/26 18:04:05;;;;;;;39.42;23.17;;;0.30;94.90;;;;;;5117179;28;20074;-96
2020/12/26 18:06:31;;;;;;;37.15;22.55;;;0.30;95.20;;;;;;5115705;28;20365;-95
2020/12/26 18:08:57;;;;;;;41.97;22.30;;;0.40;95.50;;;;;;5115230;28;20034;-96
2020/12/26 18:11:24;;;;;;;38.22;22.73;;;0.50;95.70;;;;;;5114067;28;20457;-95
2020/12/26 18:13:50;;;;;;;37.50;22.40;;;0.60;95.80;;;;;;5112624;28;20036;-95
2020/12/26 18:16:16;;;;;;;38.30;23.38;;;0.70;96.00;;;;;;5110751;28;20494;-94
